Time;durP1;ratioP1;P1;durP2;ratioP2;P2;SDS_P1;SDS_P2;PMS_P1;PMS_P2;Temp;Humidity;BMP_temperature;BMP_pressure;BME280_temperature;BME280_humidity;BME280_pressure;Samples;Min_cycle;Max_cycle;Signal;HPM_P1;HPM_P2
2021/01/06 00:00:20;;;;;;;1.45;1.23;;;16.40;41.50;;;;;;6110248;23;20147;-82
2021/01/06 00:02:46;;;;;;;1.30;1.20;;;16.40;41.40;;;;;;6110784;23;20145;-81
2021/01/06 00:05:19;;;;;;;1.20;1.10;;;16.40;41.30;;;;;;6109861;23;20569;-81
2021/01/06 00:07:45;;;;;;;1.27;1.15;;;16.40;41.40;;;;;;6110067;23;20226;-81
2021/01/06 00:10:13;;;;;;;1.27;1.17;;;16.40;41.40;;;;;;6107354;23;20136;-81
2021/01/06 00:12:41;;;;;;;1.25;1.15;;;16.30;41.50;;;;;;6109473;23;20133;-82
2021/01/06 00:15:11;;;;;;;1.10;1.00;;;16.30;41.50;;;;;;6108996;23;20145;-80
2021/01/06 00:17:37;;;;;;;1.20;1.10;;;16.30;41.50;;;;;;6109336;23;20196;-81
2021/01/06 00:20:07;;;;;;;1.30;1.20;;;16.30;41.60;;;;;;6109809;23;20516;-81
2021/01/06 00:22:32;;;;;;;1.50;1.23;;;16.30;41.60;;;;;;6108067;23;20153;-81
2021/01/06 00:24:58;;;;;;;1.45;1.33;;;16.40;41.60;;;;;;6109402;23;20144;-81
2021/01/06 00:27:26;;;;;;;1.30;1.20;;;16.40;41.60;;;;;;6109354;23;20169;-80
2021/01/06 00:29:54;;;;;;;1.40;1.30;;;16.40;41.60;;;;;;6109477;23;20156;-80
2021/01/06 00:32:21;;;;;;;1.65;1.30;;;16.40;41.60;;;;;;6109535;23;20621;-80
2021/01/06 00:34:46;;;;;;;1.90;1.08;;;16.30;41.60;;;;;;6124335;23;20190;-81
2021/01/06 00:37:16;;;;;;;1.70;1.40;;;16.40;41.50;;;;;;6139549;23;20575;-81
2021/01/06 00:39:42;;;;;;;1.30;1.20;;;16.30;41.60;;;;;;6138717;23;20133;-82
2021/01/06 00:42:08;;;;;;;1.13;1.02;;;16.30;41.70;;;;;;6139664;23;20156;-81
2021/01/06 00:44:34;;;;;;;1.50;1.17;;;16.30;41.70;;;;;;6141035;23;20129;-81
2021/01/06 00:47:00;;;;;;;1.50;1.40;;;16.30;41.70;;;;;;6140382;23;20151;-81
2021/01/06 00:49:27;;;;;;;1.40;1.30;;;16.40;41.60;;;;;;6139763;23;20167;-81
2021/01/06 00:51:53;;;;;;;1.30;1.20;;;16.40;41.60;;;;;;6114079;23;20136;-80
2021/01/06 00:54:20;;;;;;;1.42;1.33;;;16.30;41.70;;;;;;6139514;23;20155;-81
2021/01/06 00:56:45;;;;;;;1.20;1.10;;;16.30;41.70;;;;;;6139496;23;20683;-82
2021/01/06 00:59:11;;;;;;;1.30;1.20;;;16.30;41.80;;;;;;6139188;23;20133;-81
2021/01/06 01:01:37;;;;;;;1.08;1.00;;;16.30;41.70;;;;;;6139311;23;20160;-80
2021/01/06 01:04:03;;;;;;;1.20;1.05;;;16.30;41.70;;;;;;6140022;23;20151;-81
2021/01/06 01:06:31;;;;;;;1.10;1.00;;;16.30;41.60;;;;;;6112126;23;20199;-82
2021/01/06 01:08:59;;;;;;;1.17;1.08;;;16.30;41.70;;;;;;6137010;23;20168;-80
2021/01/06 01:11:27;;;;;;;1.38;1.27;;;16.30;41.70;;;;;;6111037;23;20141;-80
2021/01/06 01:13:56;;;;;;;1.20;1.10;;;16.30;41.80;;;;;;6110902;23;20139;-82
2021/01/06 01:16:30;;;;;;;1.42;1.25;;;16.30;41.80;;;;;;6135943;23;20136;-80
2021/01/06 01:18:57;;;;;;;1.33;1.10;;;16.30;41.70;;;;;;6136076;23;20478;-81
2021/01/06 01:21:31;;;;;;;1.20;1.10;;;16.30;41.80;;;;;;6109988;23;20141;-81
2021/01/06 01:23:57;;;;;;;1.55;1.40;;;16.30;41.80;;;;;;6136607;23;20160;-81
2021/01/06 01:26:23;;;;;;;1.60;1.27;;;16.30;41.80;;;;;;6136260;23;20136;-81
2021/01/06 01:28:51;;;;;;;1.42;1.20;;;16.30;41.90;;;;;;6110695;23;20168;-81
2021/01/06 01:31:16;;;;;;;1.15;0.93;;;16.30;41.70;;;;;;6137162;23;20245;-80
2021/01/06 01:33:43;;;;;;;1.38;1.27;;;16.20;41.90;;;;;;6113385;23;20132;-81
2021/01/06 01:36:09;;;;;;;1.33;1.17;;;16.30;41.80;;;;;;6114181;23;20141;-78
2021/01/06 01:38:34;;;;;;;1.15;1.05;;;16.30;41.80;;;;;;6114329;23;20145;-80
2021/01/06 01:41:06;;;;;;;1.35;1.15;;;16.30;41.80;;;;;;6115604;23;20132;-80
2021/01/06 01:43:32;;;;;;;1.48;1.20;;;16.30;41.80;;;;;;6116918;23;20140;-81
2021/01/06 01:45:57;;;;;;;1.50;1.00;;;16.20;41.80;;;;;;6117102;23;20136;-80
2021/01/06 01:48:23;;;;;;;1.00;0.90;;;16.30;41.90;;;;;;6142320;23;20159;-81
2021/01/06 01:50:49;;;;;;;1.35;1.25;;;16.30;41.90;;;;;;6116043;23;20152;-81
2021/01/06 01:53:15;;;;;;;1.30;1.20;;;16.30;41.90;;;;;;6092736;23;20136;-78
2021/01/06 01:55:42;;;;;;;1.42;1.05;;;16.30;41.80;;;;;;6094335;23;20143;-80
2021/01/06 01:58:12;;;;;;;1.20;1.10;;;16.30;41.80;;;;;;6117966;23;20120;-81
2021/01/06 02:00:47;;;;;;;1.50;1.30;;;16.30;41.90;;;;;;6143565;23;20140;-81
2021/01/06 02:03:32;;;;;;;1.23;1.13;;;16.30;41.90;;;;;;6117838;23;20191;-80
2021/01/06 02:06:57;;;;;;;1.80;1.30;;;16.30;41.80;;;;;;6143408;23;20133;-81
2021/01/06 02:09:30;;;;;;;1.20;1.10;;;16.30;41.80;;;;;;6055297;23;20249;-81
2021/01/06 02:12:25;;;;;;;1.40;1.30;;;16.20;41.90;;;;;;6031048;23;20257;-79
2021/01/06 02:15:34;;;;;;;1.30;1.20;;;16.20;41.90;;;;;;6029747;23;20166;-80
2021/01/06 02:18:00;;;;;;;1.30;1.20;;;16.30;42.00;;;;;;5968027;24;20156;-81
2021/01/06 02:20:26;;;;;;;1.30;1.20;;;16.20;41.90;;;;;;5946549;24;20175;-81
2021/01/06 02:22:53;;;;;;;1.20;1.10;;;16.20;41.90;;;;;;5969147;24;20156;-81
2021/01/06 02:25:26;;;;;;;1.30;1.20;;;16.30;42.00;;;;;;5946488;24;20162;-82
2021/01/06 02:27:52;;;;;;;1.30;1.20;;;16.30;42.00;;;;;;5946124;24;20214;-81
2021/01/06 02:30:20;;;;;;;1.02;0.93;;;16.20;42.10;;;;;;5946722;24;20148;-81
2021/01/06 02:32:46;;;;;;;1.30;1.20;;;16.30;42.10;;;;;;5968421;24;20156;-81
2021/01/06 02:35:13;;;;;;;1.48;1.15;;;16.20;42.00;;;;;;5941800;24;20227;-81
2021/01/06 02:37:39;;;;;;;1.33;1.00;;;16.30;42.10;;;;;;5940771;24;20165;-80
2021/01/06 02:40:06;;;;;;;1.30;1.20;;;16.30;42.50;;;;;;5941532;24;20145;-81
2021/01/06 02:42:36;;;;;;;1.42;1.10;;;16.30;41.80;;;;;;5941985;24;20265;-81
2021/01/06 02:45:06;;;;;;;1.55;1.23;;;16.30;41.90;;;;;;5987902;23;20178;-81
2021/01/06 02:47:31;;;;;;;1.35;1.23;;;16.30;42.10;;;;;;6001473;23;20183;-81
2021/01/06 02:49:58;;;;;;;1.15;1.02;;;16.30;42.00;;;;;;6001732;23;20141;-81
2021/01/06 02:52:38;;;;;;;1.20;1.05;;;16.30;42.00;;;;;;6001947;23;20155;-82
2021/01/06 02:55:08;;;;;;;0.77;0.77;;;16.20;42.00;;;;;;6039789;23;20212;-81
2021/01/06 02:57:35;;;;;;;1.30;1.20;;;16.30;42.10;;;;;;6064931;23;20145;-83
2021/01/06 03:00:04;;;;;;;1.30;1.13;;;16.30;42.00;;;;;;6088958;23;20137;-81
2021/01/06 03:02:30;;;;;;;1.67;1.40;;;16.30;42.10;;;;;;6087742;23;20157;-81
2021/01/06 03:05:20;;;;;;;1.40;1.30;;;16.20;42.10;;;;;;6064561;23;20137;-81
2021/01/06 03:07:47;;;;;;;1.27;1.10;;;16.20;42.00;;;;;;6114024;23;20184;-82
2021/01/06 03:10:16;;;;;;;1.38;1.23;;;16.20;42.10;;;;;;6088121;23;20191;-82
2021/01/06 03:12:43;;;;;;;1.20;1.10;;;16.20;42.10;;;;;;6089673;23;20129;-81
2021/01/06 03:15:13;;;;;;;1.10;1.00;;;16.30;42.00;;;;;;6064952;23;20129;-80
2021/01/06 03:17:39;;;;;;;1.30;1.13;;;16.20;42.10;;;;;;6114055;23;20195;-81
2021/01/06 03:20:32;;;;;;;1.30;1.20;;;16.20;42.10;;;;;;6113484;23;20140;-81
2021/01/06 03:23:29;;;;;;;1.10;1.00;;;16.20;42.10;;;;;;6086703;23;20176;-82
2021/01/06 03:25:56;;;;;;;1.50;1.17;;;16.20;42.30;;;;;;5973561;24;20163;-81
2021/01/06 03:28:23;;;;;;;1.10;1.00;;;16.20;42.20;;;;;;5996327;24;20171;-82
2021/01/06 03:30:49;;;;;;;1.20;1.10;;;16.20;42.00;;;;;;5997140;24;20210;-83
2021/01/06 03:33:28;;;;;;;1.27;1.17;;;16.30;42.00;;;;;;5997415;24;20204;-81
2021/01/06 03:36:03;;;;;;;1.45;1.30;;;16.30;41.90;;;;;;6023897;23;20259;-82
2021/01/06 03:38:39;;;;;;;1.20;1.00;;;16.30;41.90;;;;;;6001260;23;20142;-82
2021/01/06 03:41:06;;;;;;;1.02;1.00;;;16.30;41.80;;;;;;6002924;23;20146;-83
2021/01/06 03:43:43;;;;;;;1.40;1.30;;;16.40;41.70;;;;;;6002281;23;20154;-82
2021/01/06 03:46:34;;;;;;;1.40;1.30;;;16.40;41.80;;;;;;6002090;23;20143;-83
2021/01/06 03:49:12;;;;;;;1.27;1.17;;;16.40;41.70;;;;;;6024635;23;20189;-82
2021/01/06 03:51:50;;;;;;;1.48;1.30;;;16.40;41.70;;;;;;6025649;23;20198;-83
2021/01/06 03:54:21;;;;;;;1.75;1.25;;;16.40;41.70;;;;;;6001105;23;20143;-82
2021/01/06 03:56:56;;;;;;;1.20;1.10;;;16.30;41.80;;;;;;6024999;23;20162;-81
2021/01/06 03:59:27;;;;;;;1.30;1.20;;;16.30;41.70;;;;;;6002954;23;20142;-82
2021/01/06 04:02:12;;;;;;;1.40;1.30;;;16.40;41.70;;;;;;6042845;23;20152;-82
2021/01/06 04:05:07;;;;;;;1.25;1.00;;;16.40;41.70;;;;;;6143219;23;20136;-82
2021/01/06 04:07:40;;;;;;;1.23;1.08;;;16.30;41.80;;;;;;6143534;23;20175;-82
2021/01/06 04:10:28;;;;;;;1.30;1.20;;;16.40;41.70;;;;;;6117298;23;20132;-81
2021/01/06 04:12:54;;;;;;;1.10;1.00;;;16.40;41.70;;;;;;6142752;23;20179;-82
2021/01/06 04:15:20;;;;;;;1.20;1.10;;;16.40;41.60;;;;;;6143684;23;20132;-82
2021/01/06 04:17:48;;;;;;;1.25;1.10;;;16.40;41.70;;;;;;6095003;23;20193;-82
2021/01/06 04:20:15;;;;;;;1.20;1.10;;;16.40;41.70;;;;;;6118752;23;20140;-82
2021/01/06 04:22:52;;;;;;;1.10;1.00;;;16.40;42.40;;;;;;6144417;23;20196;-82
2021/01/06 04:25:34;;;;;;;1.00;0.93;;;16.40;41.60;;;;;;6119428;23;20144;-82
2021/01/06 04:28:07;;;;;;;1.10;1.00;;;16.40;41.60;;;;;;6144603;23;20287;-82
2021/01/06 04:30:35;;;;;;;1.10;1.00;;;16.40;41.60;;;;;;6118438;23;20136;-82
2021/01/06 04:33:13;;;;;;;1.35;1.25;;;16.40;42.20;;;;;;6144927;23;20132;-82
2021/01/06 04:35:38;;;;;;;1.08;1.02;;;16.40;41.60;;;;;;6093817;23;20251;-82
2021/01/06 04:38:05;;;;;;;1.17;1.08;;;16.40;41.60;;;;;;6094991;23;20164;-82
2021/01/06 04:40:40;;;;;;;1.55;1.02;;;16.40;41.50;;;;;;6118484;23;20471;-82
2021/01/06 04:43:15;;;;;;;1.20;1.10;;;16.50;41.50;;;;;;6119215;23;20136;-82
2021/01/06 04:45:43;;;;;;;0.80;0.80;;;16.50;41.60;;;;;;6144558;23;20135;-82
2021/01/06 04:48:57;;;;;;;1.08;0.98;;;16.50;41.50;;;;;;6144274;23;20163;-82
2021/01/06 04:51:30;;;;;;;1.20;1.10;;;16.40;41.60;;;;;;6138862;23;20147;-82
2021/01/06 04:54:14;;;;;;;1.10;1.00;;;16.30;41.60;;;;;;6094861;23;20167;-82
2021/01/06 04:57:10;;;;;;;1.13;0.98;;;16.40;41.40;;;;;;6143425;23;20620;-82
2021/01/06 04:59:45;;;;;;;1.17;1.08;;;16.50;41.10;;;;;;6117831;23;20163;-82
2021/01/06 05:02:35;;;;;;;1.33;1.10;;;16.50;41.30;;;;;;6119107;23;20132;-82
2021/01/06 05:05:38;;;;;;;1.00;0.90;;;16.40;41.40;;;;;;6143285;23;20159;-82
2021/01/06 05:08:21;;;;;;;1.10;0.90;;;16.50;41.20;;;;;;6144391;23;20167;-81
2021/01/06 05:10:54;;;;;;;1.23;1.02;;;16.50;41.10;;;;;;6143611;23;20156;-82
2021/01/06 05:13:32;;;;;;;1.20;1.10;;;16.50;41.00;;;;;;6118142;23;20232;-82
2021/01/06 05:16:23;;;;;;;0.88;0.85;;;16.50;41.00;;;;;;6143935;23;20133;-82
2021/01/06 05:18:49;;;;;;;1.20;1.10;;;16.50;41.00;;;;;;6144358;23;20152;-82
2021/01/06 05:21:30;;;;;;;1.10;1.00;;;16.40;41.10;;;;;;6143911;23;20148;-82
2021/01/06 05:24:36;;;;;;;1.30;1.15;;;16.40;41.00;;;;;;6117763;23;20140;-82
2021/01/06 05:27:25;;;;;;;1.27;0.98;;;16.40;41.20;;;;;;6143825;23;20155;-82
2021/01/06 05:30:00;;;;;;;1.27;1.10;;;16.50;41.00;;;;;;6143313;23;20152;-82
2021/01/06 05:32:28;;;;;;;1.70;0.80;;;16.40;41.00;;;;;;6118442;23;20139;-83
2021/01/06 05:35:17;;;;;;;0.93;0.82;;;16.40;40.90;;;;;;6117134;23;20192;-82
2021/01/06 05:37:44;;;;;;;0.98;0.82;;;16.40;41.00;;;;;;6143018;23;20136;-82
2021/01/06 05:40:11;;;;;;;1.30;1.02;;;16.40;41.00;;;;;;6117703;23;20143;-83
2021/01/06 05:42:52;;;;;;;1.30;1.20;;;16.50;40.80;;;;;;6116745;23;20141;-83
2021/01/06 05:45:35;;;;;;;1.30;1.20;;;16.40;40.80;;;;;;6143686;23;20136;-82
2021/01/06 05:48:14;;;;;;;1.40;1.08;;;16.40;40.90;;;;;;6118091;23;20168;-82
2021/01/06 05:50:41;;;;;;;1.27;1.13;;;16.40;41.00;;;;;;6117418;23;20140;-83
2021/01/06 05:53:35;;;;;;;1.30;1.20;;;16.30;40.90;;;;;;6117506;23;20160;-83
2021/01/06 05:56:21;;;;;;;1.20;1.10;;;16.40;41.60;;;;;;6143295;23;20136;-82
2021/01/06 05:58:54;;;;;;;1.40;1.20;;;16.40;40.70;;;;;;6116873;23;20143;-82
2021/01/06 06:01:52;;;;;;;1.08;0.98;;;16.40;40.70;;;;;;6143665;23;20140;-82
2021/01/06 06:04:40;;;;;;;1.30;1.20;;;16.50;40.50;;;;;;6143047;23;20136;-82
2021/01/06 06:07:19;;;;;;;1.13;1.02;;;16.50;40.30;;;;;;6143086;23;20136;-82
2021/01/06 06:10:28;;;;;;;1.42;1.17;;;16.50;40.30;;;;;;6116467;23;20140;-83
2021/01/06 06:13:14;;;;;;;1.38;1.17;;;16.50;40.40;;;;;;6117613;23;20136;-82
2021/01/06 06:16:00;;;;;;;1.17;1.00;;;16.40;40.60;;;;;;6097627;23;20190;-83
2021/01/06 06:18:52;;;;;;;1.17;1.08;;;16.50;40.30;;;;;;6121683;23;20163;-83
2021/01/06 06:21:46;;;;;;;1.35;1.25;;;16.40;40.50;;;;;;6030080;23;20165;-81
2021/01/06 06:24:34;;;;;;;0.95;0.90;;;16.40;40.40;;;;;;5947557;24;20172;-82
2021/01/06 06:27:14;;;;;;;1.17;1.08;;;16.40;40.60;;;;;;5948370;24;20201;-82
2021/01/06 06:30:12;;;;;;;1.15;1.05;;;16.40;40.30;;;;;;5947523;24;20176;-80
2021/01/06 06:32:48;;;;;;;1.20;1.10;;;16.50;40.30;;;;;;5949085;24;20163;-81
2021/01/06 06:35:17;;;;;;;1.67;1.17;;;16.50;40.20;;;;;;5927068;24;20222;-81
2021/01/06 06:37:55;;;;;;;1.23;1.00;;;16.50;40.20;;;;;;5950107;24;20165;-81
2021/01/06 06:40:48;;;;;;;1.20;1.10;;;16.50;40.20;;;;;;5926815;24;20145;-82
2021/01/06 06:43:39;;;;;;;1.10;1.00;;;16.40;40.30;;;;;;5950731;24;20210;-81
2021/01/06 06:46:28;;;;;;;1.45;1.20;;;16.40;40.30;;;;;;5928687;24;20165;-82
2021/01/06 06:49:20;;;;;;;1.27;1.17;;;16.40;40.30;;;;;;5946457;24;20181;-80
2021/01/06 06:52:00;;;;;;;1.13;1.02;;;16.40;40.10;;;;;;5927677;24;20157;-81
2021/01/06 06:54:55;;;;;;;1.40;1.10;;;16.40;40.10;;;;;;5951128;24;20153;-81
2021/01/06 06:57:23;;;;;;;1.27;1.02;;;16.40;40.20;;;;;;5944798;23;20149;-80
2021/01/06 06:59:49;;;;;;;1.48;1.30;;;16.40;40.20;;;;;;6067312;23;20161;-82
2021/01/06 07:02:45;;;;;;;1.40;1.20;;;16.40;40.10;;;;;;6151367;23;20156;-80
2021/01/06 07:05:18;;;;;;;1.20;1.10;;;16.40;40.00;;;;;;6122618;23;20184;-82
2021/01/06 07:07:49;;;;;;;1.13;1.02;;;16.50;39.90;;;;;;6117240;23;20184;-82
2021/01/06 07:10:22;;;;;;;1.25;1.15;;;16.40;40.00;;;;;;6096764;23;20136;-81
2021/01/06 07:12:47;;;;;;;1.30;1.20;;;16.50;40.00;;;;;;6093045;23;20592;-80
2021/01/06 07:15:37;;;;;;;1.17;0.95;;;16.40;40.00;;;;;;6089813;23;20150;-82
2021/01/06 07:18:24;;;;;;;1.23;1.13;;;16.40;40.10;;;;;;6091047;23;20148;-82
2021/01/06 07:21:18;;;;;;;1.35;1.25;;;16.40;40.10;;;;;;6141078;23;20147;-81
2021/01/06 07:23:48;;;;;;;1.23;1.10;;;16.40;39.90;;;;;;6140340;23;20179;-83
2021/01/06 07:26:19;;;;;;;1.20;1.10;;;16.40;40.10;;;;;;6115923;23;20160;-82
2021/01/06 07:28:45;;;;;;;1.70;1.08;;;16.40;39.80;;;;;;6085647;23;20163;-82
2021/01/06 07:31:23;;;;;;;1.08;0.98;;;16.40;39.80;;;;;;6109056;23;20159;-82
2021/01/06 07:33:54;;;;;;;1.30;1.20;;;16.40;39.90;;;;;;6112609;23;20160;-81
2021/01/06 07:36:27;;;;;;;1.42;1.33;;;16.40;39.70;;;;;;6089295;23;20163;-80
2021/01/06 07:38:54;;;;;;;1.40;1.30;;;16.40;39.80;;;;;;6113772;23;20496;-82
2021/01/06 07:41:21;;;;;;;1.10;1.00;;;16.40;39.80;;;;;;6112384;23;20140;-81
2021/01/06 07:44:16;;;;;;;1.23;1.13;;;16.50;39.60;;;;;;6115327;23;20147;-81
2021/01/06 07:47:16;;;;;;;1.90;1.33;;;16.50;39.60;;;;;;6117793;23;20143;-81
2021/01/06 07:49:58;;;;;;;1.45;1.30;;;16.50;39.60;;;;;;5998175;24;20626;-82
2021/01/06 07:53:01;;;;;;;1.40;1.10;;;16.50;39.60;;;;;;5999074;24;20152;-81
2021/01/06 07:55:37;;;;;;;1.42;1.33;;;16.50;39.40;;;;;;5944354;24;20156;-81
2021/01/06 07:58:08;;;;;;;1.27;1.10;;;16.50;39.50;;;;;;5945145;24;20163;-80
2021/01/06 08:01:03;;;;;;;1.50;1.40;;;16.40;39.50;;;;;;5944923;24;20164;-81
2021/01/06 08:03:32;;;;;;;1.40;1.20;;;16.40;39.60;;;;;;5944237;24;20175;-84
2021/01/06 08:05:59;;;;;;;1.40;1.13;;;16.50;39.30;;;;;;5944038;24;20156;-82
2021/01/06 08:08:45;;;;;;;1.38;1.27;;;16.50;39.30;;;;;;5943162;24;20560;-81
2021/01/06 08:11:13;;;;;;;1.33;1.15;;;16.60;39.10;;;;;;5920231;24;20159;-82
2021/01/06 08:14:00;;;;;;;1.40;1.30;;;16.50;39.40;;;;;;5940683;24;20141;-82
2021/01/06 08:16:48;;;;;;;1.35;1.20;;;16.50;39.20;;;;;;5923701;24;20157;-81
2021/01/06 08:19:23;;;;;;;1.20;1.10;;;16.60;39.10;;;;;;5943814;24;20205;-82
2021/01/06 08:22:27;;;;;;;1.38;1.20;;;16.50;39.20;;;;;;5942304;24;20606;-82
2021/01/06 08:25:01;;;;;;;1.25;1.15;;;16.50;39.10;;;;;;5977560;23;20158;-82
2021/01/06 08:27:29;;;;;;;1.20;1.10;;;16.50;39.00;;;;;;6030013;23;20137;-82
2021/01/06 08:30:20;;;;;;;0.80;0.80;;;16.60;39.10;;;;;;6120982;23;20159;-82
2021/01/06 08:32:47;;;;;;;1.40;1.30;;;16.60;39.00;;;;;;6141670;23;20584;-81
2021/01/06 08:35:20;;;;;;;1.40;1.20;;;16.50;39.10;;;;;;6119056;23;20188;-82
2021/01/06 08:37:50;;;;;;;1.40;1.30;;;16.40;39.20;;;;;;6095328;23;20152;-82
2021/01/06 08:40:37;;;;;;;1.20;1.10;;;16.50;39.20;;;;;;6120934;23;20167;-81
2021/01/06 08:43:09;;;;;;;1.20;1.10;;;16.50;39.10;;;;;;6145462;23;20587;-82
2021/01/06 08:45:37;;;;;;;1.20;1.10;;;16.40;39.30;;;;;;6117527;23;20155;-82
2021/01/06 08:48:36;;;;;;;1.90;1.42;;;16.40;39.50;;;;;;6141232;23;20172;-81
2021/01/06 08:51:12;;;;;;;1.98;1.50;;;16.40;39.30;;;;;;6141831;23;20203;-81
2021/01/06 08:53:48;;;;;;;1.60;1.27;;;16.50;39.20;;;;;;6141693;23;20132;-79
2021/01/06 08:56:27;;;;;;;1.20;1.10;;;16.60;39.10;;;;;;6115614;23;20139;-81
2021/01/06 08:58:54;;;;;;;1.55;1.30;;;16.60;39.10;;;;;;6141863;23;20175;-81
2021/01/06 09:01:43;;;;;;;1.52;1.35;;;16.50;39.00;;;;;;6141766;23;20597;-79
2021/01/06 09:04:19;;;;;;;1.33;1.23;;;16.60;39.70;;;;;;6141230;23;20140;-80
2021/01/06 09:07:13;;;;;;;1.15;1.05;;;16.50;39.00;;;;;;6091884;23;20328;-80
2021/01/06 09:09:59;;;;;;;1.20;1.10;;;16.60;38.90;;;;;;6119539;23;20164;-81
2021/01/06 09:12:38;;;;;;;1.90;1.50;;;16.50;39.10;;;;;;6141529;23;20136;-81
2021/01/06 09:15:14;;;;;;;1.38;1.10;;;16.50;39.20;;;;;;6141326;23;20196;-82
2021/01/06 09:17:51;;;;;;;1.30;1.20;;;16.40;39.20;;;;;;6114951;23;20168;-82
2021/01/06 09:21:00;;;;;;;1.48;1.38;;;16.40;39.30;;;;;;6114008;23;20136;-79
2021/01/06 09:23:26;;;;;;;1.35;1.25;;;16.40;39.40;;;;;;6019732;23;20158;-82
2021/01/06 09:25:53;;;;;;;1.52;1.40;;;16.40;39.40;;;;;;5998122;23;20147;-80
2021/01/06 09:28:19;;;;;;;1.25;1.15;;;16.30;39.50;;;;;;5997788;23;20174;-81
2021/01/06 09:30:45;;;;;;;1.35;1.23;;;16.40;39.40;;;;;;6022957;23;20294;-81
2021/01/06 09:33:31;;;;;;;1.30;1.20;;;16.30;39.30;;;;;;5998232;23;20230;-81
2021/01/06 09:35:58;;;;;;;2.03;1.27;;;16.40;39.30;;;;;;6018203;23;20196;-81
2021/01/06 09:38:27;;;;;;;1.33;1.23;;;16.40;39.30;;;;;;5996316;23;20196;-80
2021/01/06 09:40:55;;;;;;;3.15;1.20;;;16.40;39.30;;;;;;6020545;23;20162;-83
2021/01/06 09:43:39;;;;;;;1.30;1.05;;;16.40;39.20;;;;;;5997729;23;20612;-82
2021/01/06 09:46:32;;;;;;;1.30;1.20;;;16.40;39.50;;;;;;6022763;23;20533;-81
2021/01/06 09:49:00;;;;;;;1.42;1.25;;;16.40;39.50;;;;;;5937044;24;20192;-79
2021/01/06 09:51:27;;;;;;;1.58;1.48;;;16.40;39.40;;;;;;5892919;24;20178;-81
2021/01/06 09:53:55;;;;;;;1.73;1.38;;;16.40;40.10;;;;;;5916056;24;20164;-83
2021/01/06 09:56:23;;;;;;;1.30;1.20;;;16.40;39.40;;;;;;5916217;24;20227;-82
2021/01/06 09:58:49;;;;;;;2.42;1.55;;;16.40;39.40;;;;;;5926603;23;20161;-81
2021/01/06 10:01:36;;;;;;;1.65;1.45;;;16.40;39.50;;;;;;6004738;23;20165;-81
2021/01/06 10:04:13;;;;;;;1.20;1.10;;;16.40;39.60;;;;;;6051893;23;20139;-81
2021/01/06 10:06:59;;;;;;;1.67;1.50;;;16.40;39.60;;;;;;6028407;23;20154;-82
2021/01/06 10:09:30;;;;;;;1.70;1.38;;;16.40;39.60;;;;;;6047840;23;20184;-81
2021/01/06 10:11:56;;;;;;;1.20;1.10;;;16.50;39.40;;;;;;6028021;23;20149;-81
2021/01/06 10:15:16;;;;;;;1.85;1.48;;;16.50;39.10;;;;;;6050559;23;20202;-82
2021/01/06 10:17:49;;;;;;;2.20;1.50;;;16.50;39.20;;;;;;6051765;23;20146;-81
2021/01/06 10:21:12;;;;;;;1.25;1.08;;;16.50;39.30;;;;;;6028199;23;20170;-82
2021/01/06 10:23:56;;;;;;;1.60;1.45;;;16.50;39.40;;;;;;5939345;24;20157;-81
2021/01/06 10:26:59;;;;;;;1.27;1.17;;;16.50;39.30;;;;;;5981612;24;20159;-82
2021/01/06 10:29:33;;;;;;;1.50;1.20;;;16.50;39.20;;;;;;5995144;24;20222;-81
2021/01/06 10:32:11;;;;;;;1.30;1.20;;;16.60;39.10;;;;;;5994444;24;20136;-81
2021/01/06 10:34:42;;;;;;;1.63;1.50;;;16.60;39.10;;;;;;5993979;24;20202;-80
2021/01/06 10:37:17;;;;;;;1.92;1.40;;;16.60;39.10;;;;;;5973372;24;20520;-81
2021/01/06 10:40:31;;;;;;;1.67;1.50;;;16.50;39.20;;;;;;5948473;24;20223;-81
2021/01/06 10:43:34;;;;;;;1.48;1.30;;;16.50;39.20;;;;;;5994544;24;20163;-81
2021/01/06 10:46:00;;;;;;;1.90;1.40;;;16.50;39.10;;;;;;5971424;24;20162;-80
2021/01/06 10:48:58;;;;;;;1.55;1.42;;;16.50;39.10;;;;;;5971462;24;20175;-81
2021/01/06 10:51:54;;;;;;;1.40;1.30;;;16.50;39.10;;;;;;5939537;24;20157;-81
2021/01/06 10:54:40;;;;;;;1.65;1.38;;;16.60;39.10;;;;;;5978317;23;20158;-81
2021/01/06 11:00:22;;;;;;;1.60;1.20;;;16.50;38.90;;;;;;5965891;24;20144;-82
2021/01/06 11:03:30;;;;;;;1.63;1.27;;;16.50;39.00;;;;;;5966115;24;20214;-82
2021/01/06 11:06:30;;;;;;;1.70;1.30;;;16.50;38.90;;;;;;5955108;24;20190;-82
2021/01/06 11:09:20;;;;;;;1.50;1.30;;;16.60;39.00;;;;;;5966470;24;20179;-82
2021/01/06 11:12:23;;;;;;;1.42;1.33;;;16.50;38.90;;;;;;5965687;24;20224;-83
2021/01/06 11:16:03;;;;;;;1.33;1.23;;;16.50;39.00;;;;;;5966247;24;20152;-82
2021/01/06 11:18:29;;;;;;;1.42;1.30;;;16.50;39.00;;;;;;5962871;24;20151;-83
2021/01/06 11:21:24;;;;;;;1.50;1.40;;;16.50;39.10;;;;;;5942263;24;20191;-81
2021/01/06 11:23:52;;;;;;;2.45;1.42;;;16.50;39.10;;;;;;5947321;24;20159;-82
2021/01/06 11:26:21;;;;;;;1.58;1.25;;;16.50;39.00;;;;;;5957714;23;20154;-82
2021/01/06 11:28:53;;;;;;;1.70;1.40;;;16.50;39.00;;;;;;6048784;23;20174;-83
2021/01/06 11:31:27;;;;;;;1.95;1.25;;;16.40;39.70;;;;;;6047586;23;20165;-83
2021/01/06 11:34:19;;;;;;;1.38;1.20;;;16.40;39.00;;;;;;6034911;23;20227;-82
2021/01/06 11:36:55;;;;;;;1.38;1.25;;;16.50;39.10;;;;;;6138119;23;20156;-82
2021/01/06 11:39:40;;;;;;;1.38;1.25;;;16.50;38.90;;;;;;6111267;23;20207;-83
2021/01/06 11:42:08;;;;;;;1.30;1.20;;;16.50;39.00;;;;;;6134996;23;20870;-81
2021/01/06 11:45:05;;;;;;;1.40;1.30;;;16.50;38.90;;;;;;6134546;23;20200;-82
2021/01/06 11:47:53;;;;;;;1.80;1.45;;;16.40;39.00;;;;;;6113322;23;20188;-82
2021/01/06 11:50:36;;;;;;;1.58;1.27;;;16.40;39.00;;;;;;5977971;23;20564;-81
2021/01/06 11:53:28;;;;;;;1.52;1.33;;;16.40;39.00;;;;;;5973540;23;20155;-81
2021/01/06 11:56:12;;;;;;;1.60;1.40;;;16.50;39.00;;;;;;5976876;23;20187;-80
2021/01/06 11:59:01;;;;;;;1.58;1.42;;;16.40;39.00;;;;;;6020299;23;20143;-81
2021/01/06 12:01:44;;;;;;;1.60;1.40;;;16.50;38.90;;;;;;6000000;23;20159;-81
2021/01/06 12:04:28;;;;;;;1.50;1.30;;;16.50;38.90;;;;;;5973744;23;20158;-81
2021/01/06 12:07:02;;;;;;;1.50;1.40;;;16.50;38.90;;;;;;5996040;23;20146;-81
2021/01/06 12:09:36;;;;;;;1.30;1.20;;;16.50;39.00;;;;;;5972617;23;20186;-81
2021/01/06 12:12:34;;;;;;;1.65;1.25;;;16.50;38.90;;;;;;5996561;23;20150;-80
2021/01/06 12:15:22;;;;;;;2.85;1.25;;;16.60;38.70;;;;;;5999684;23;20612;-80
2021/01/06 12:17:53;;;;;;;2.22;1.40;;;16.50;38.70;;;;;;6000917;23;20171;-81
2021/01/06 12:20:25;;;;;;;1.58;1.40;;;16.50;38.80;;;;;;5975008;23;20154;-81
2021/01/06 12:23:15;;;;;;;1.52;1.30;;;16.50;38.70;;;;;;5998326;23;20635;-81
2021/01/06 12:25:46;;;;;;;1.92;1.45;;;16.50;38.80;;;;;;6021397;23;20198;-81
2021/01/06 12:28:32;;;;;;;1.70;1.58;;;16.50;38.80;;;;;;6070713;23;20179;-80
2021/01/06 12:31:05;;;;;;;1.40;1.30;;;16.50;38.80;;;;;;6112725;23;20132;-81
2021/01/06 12:34:00;;;;;;;1.80;1.45;;;16.50;38.90;;;;;;6111532;23;20133;-81
2021/01/06 12:36:37;;;;;;;1.50;1.30;;;16.50;38.80;;;;;;6107011;23;20176;-80
2021/01/06 12:39:27;;;;;;;1.65;1.40;;;16.50;38.70;;;;;;6083407;23;20569;-81
2021/01/06 12:42:21;;;;;;;2.22;1.48;;;16.50;38.70;;;;;;6060346;23;20247;-81
2021/01/06 12:45:13;;;;;;;1.42;1.33;;;16.60;38.70;;;;;;6029508;23;20157;-81
2021/01/06 12:47:55;;;;;;;1.38;1.27;;;16.60;38.70;;;;;;6050739;23;20142;-81
2021/01/06 12:50:53;;;;;;;1.55;1.33;;;16.60;39.20;;;;;;6026996;23;20150;-81
2021/01/06 12:53:27;;;;;;;1.50;1.40;;;16.60;38.50;;;;;;6051104;23;20139;-81
2021/01/06 12:55:55;;;;;;;1.95;1.38;;;16.60;38.60;;;;;;6025464;23;20150;-80
2021/01/06 12:58:36;;;;;;;1.55;1.30;;;16.50;38.60;;;;;;6026197;23;20150;-81
2021/01/06 13:01:20;;;;;;;1.60;1.40;;;16.60;38.60;;;;;;6026958;23;20145;-80
2021/01/06 13:03:58;;;;;;;1.73;1.30;;;16.50;38.50;;;;;;6026618;23;20142;-81
2021/01/06 13:06:32;;;;;;;2.35;1.40;;;16.60;38.50;;;;;;6051567;23;20253;-82
2021/01/06 13:09:30;;;;;;;2.10;1.70;;;16.60;39.20;;;;;;6026233;23;20578;-79
2021/01/06 13:12:07;;;;;;;1.63;1.52;;;16.60;38.50;;;;;;6027457;23;20142;-79
2021/01/06 13:14:35;;;;;;;1.60;1.35;;;16.60;38.50;;;;;;6028106;23;20145;-79
2021/01/06 13:17:13;;;;;;;1.77;1.55;;;16.50;38.50;;;;;;6050650;23;20142;-80
2021/01/06 13:19:59;;;;;;;2.15;1.67;;;16.60;38.40;;;;;;6050818;23;20502;-79
2021/01/06 13:22:30;;;;;;;1.40;1.30;;;16.60;38.30;;;;;;6095147;23;20207;-79
2021/01/06 13:25:27;;;;;;;1.80;1.67;;;16.60;38.40;;;;;;6109620;23;20144;-79
2021/01/06 13:27:53;;;;;;;1.38;1.20;;;16.60;38.40;;;;;;6109031;23;20184;-79
2021/01/06 13:30:23;;;;;;;1.45;1.33;;;16.60;38.50;;;;;;6105670;23;20472;-79
2021/01/06 13:32:52;;;;;;;1.60;1.40;;;16.60;38.40;;;;;;6104749;23;20148;-80
2021/01/06 13:35:36;;;;;;;1.48;1.38;;;16.60;38.30;;;;;;6099192;23;20191;-78
2021/01/06 13:38:07;;;;;;;1.90;1.70;;;16.60;38.30;;;;;;6086981;23;20156;-79
2021/01/06 13:40:33;;;;;;;1.60;1.50;;;16.60;38.30;;;;;;6110440;23;20137;-80
2021/01/06 13:43:05;;;;;;;1.90;1.48;;;16.50;38.40;;;;;;6110468;23;20144;-81
2021/01/06 13:45:49;;;;;;;1.60;1.50;;;16.60;38.40;;;;;;6087390;23;20141;-81